Time;durP1;ratioP1;P1;durP2;ratioP2;P2;SDS_P1;SDS_P2;PMS_P1;PMS_P2;Temp;Humidity;BMP_temperature;BMP_pressure;BME280_temperature;BME280_humidity;BME280_pressure;Samples;Min_cycle;Max_cycle;Signal;HPM_P1;HPM_P2
2023/03/22 00:00:29;;;;;;;;;;;11.10;71.70;;;;;;5006174;28;86482;-39
2023/03/22 00:02:55;;;;;;;;;;;11.10;71.80;;;;;;5008724;28;88533;-39
2023/03/22 00:05:21;;;;;;;;;;;11.00;71.60;;;;;;5005706;28;87144;-39
2023/03/22 00:07:49;;;;;;;;;;;11.00;71.60;;;;;;5017689;28;88167;-39
2023/03/22 00:10:15;;;;;;;;;;;11.00;71.60;;;;;;5019249;28;89509;-38
2023/03/22 00:12:41;;;;;;;;;;;11.00;71.60;;;;;;5005681;28;87081;-39
2023/03/22 00:15:07;;;;;;;;;;;11.00;71.60;;;;;;5005732;28;88393;-39
2023/03/22 00:17:32;;;;;;;;;;;11.00;71.70;;;;;;5012016;28;89173;-39
2023/03/22 00:19:58;;;;;;;;;;;11.00;71.70;;;;;;5022300;28;87125;-39
2023/03/22 00:22:23;;;;;;;;;;;11.00;71.60;;;;;;5005199;28;89075;-39
2023/03/22 00:24:49;;;;;;;;;;;11.00;71.70;;;;;;5008350;28;88567;-39
2023/03/22 00:27:14;;;;;;;;;;;11.00;71.70;;;;;;5007241;28;88113;-39
2023/03/22 00:29:40;;;;;;;;;;;11.00;71.60;;;;;;5020419;28;89127;-39
2023/03/22 00:32:05;;;;;;;;;;;10.90;71.70;;;;;;5009241;28;88437;-38
2023/03/22 00:34:31;;;;;;;;;;;10.90;71.70;;;;;;5005189;28;88732;-39
2023/03/22 00:36:57;;;;;;;;;;;10.90;71.80;;;;;;5006917;28;88509;-38
2023/03/22 00:39:23;;;;;;;;;;;11.00;71.80;;;;;;5012742;28;87789;-39
2023/03/22 00:41:48;;;;;;;;;;;11.00;71.70;;;;;;5010305;28;88710;-39
2023/03/22 00:44:14;;;;;;;;;;;10.90;71.60;;;;;;5020687;28;89443;-39
2023/03/22 00:46:39;;;;;;;;;;;10.90;71.60;;;;;;5021945;28;87780;-39
2023/03/22 00:49:05;;;;;;;;;;;10.90;71.70;;;;;;5005284;28;88819;-39
2023/03/22 00:51:30;;;;;;;;;;;10.90;71.80;;;;;;5004943;28;87175;-39
2023/03/22 00:53:56;;;;;;;;;;;10.80;71.80;;;;;;5011265;28;89547;-38
2023/03/22 00:56:24;;;;;;;;;;;10.80;71.70;;;;;;5018249;28;89358;-39
2023/03/22 00:58:50;;;;;;;;;;;10.90;71.80;;;;;;5004051;28;87994;-38
2023/03/22 01:01:15;;;;;;;;;;;10.80;71.60;;;;;;5004904;28;89035;-39
2023/03/22 01:03:41;;;;;;;;;;;10.90;71.70;;;;;;5004380;28;89522;-38
2023/03/22 01:06:07;;;;;;;;;;;10.80;71.70;;;;;;5019948;28;87813;-39
2023/03/22 01:08:33;;;;;;;;;;;10.80;71.70;;;;;;5021575;28;89842;-39
2023/03/22 01:11:00;;;;;;;;;;;10.80;71.80;;;;;;5004592;28;87306;-39
2023/03/22 01:13:26;;;;;;;;;;;10.80;71.70;;;;;;5004969;28;89064;-39
2023/03/22 01:15:51;;;;;;;;;;;10.80;71.70;;;;;;5004109;28;89177;-39
2023/03/22 01:18:17;;;;;;;;;;;10.80;71.70;;;;;;5004796;28;87277;-39
2023/03/22 01:20:42;;;;;;;;;;;10.80;71.90;;;;;;5003996;28;88624;-38
2023/03/22 01:23:08;;;;;;;;;;;10.80;71.80;;;;;;5003844;28;89585;-39
2023/03/22 01:25:33;;;;;;;;;;;10.80;71.80;;;;;;5004366;28;87116;-39
2023/03/22 01:28:01;;;;;;;;;;;10.80;71.80;;;;;;5006674;28;88988;-39
2023/03/22 01:30:27;;;;;;;;;;;10.80;71.70;;;;;;5019661;28;87181;-39
2023/03/22 01:32:52;;;;;;;;;;;10.80;71.80;;;;;;5021069;28;87357;-39
2023/03/22 01:35:18;;;;;;;;;;;10.70;71.80;;;;;;5004001;28;89358;-39
2023/03/22 01:37:44;;;;;;;;;;;10.80;71.80;;;;;;5004242;28;86337;-39
2023/03/22 01:40:10;;;;;;;;;;;10.80;71.70;;;;;;5019133;28;88126;-39
2023/03/22 01:42:35;;;;;;;;;;;10.70;72.30;;;;;;5003917;28;90519;-39
2023/03/22 01:45:13;;;;;;;;;;;10.70;71.80;;;;;;5003724;28;88101;-39
2023/03/22 01:47:50;;;;;;;;;;;10.70;71.70;;;;;;5008395;28;89520;-39
2023/03/22 01:50:16;;;;;;;;;;;10.70;71.80;;;;;;5006152;28;89429;-39
2023/03/22 01:52:42;;;;;;;;;;;10.70;71.70;;;;;;5013613;28;87388;-39
2023/03/22 01:55:08;;;;;;;;;;;10.70;71.80;;;;;;5012119;28;89656;-38
2023/03/22 01:57:36;;;;;;;;;;;10.70;71.80;;;;;;5006074;28;87874;-39
2023/03/22 02:00:07;;;;;;;;;;;10.70;71.80;;;;;;5003627;28;88895;-39
2023/03/22 02:02:33;;;;;;;;;;;10.70;71.80;;;;;;5004022;28;88953;-39
2023/03/22 02:05:00;;;;;;;;;;;10.70;71.80;;;;;;5003823;28;87142;-39
2023/03/22 02:07:26;;;;;;;;;;;10.70;71.80;;;;;;5003780;28;88825;-39
2023/03/22 02:09:52;;;;;;;;;;;10.70;71.90;;;;;;5002142;28;90231;-39
2023/03/22 02:12:29;;;;;;;;;;;10.70;72.30;;;;;;5006742;28;88151;-38
2023/03/22 02:15:13;;;;;;;;;;;10.70;71.70;;;;;;5008084;28;89540;-39
2023/03/22 02:17:38;;;;;;;;;;;10.70;71.80;;;;;;5016621;28;87472;-39
2023/03/22 02:20:27;;;;;;;;;;;10.60;71.80;;;;;;5003865;28;87397;-39
2023/03/22 02:23:01;;;;;;;;;;;10.70;71.80;;;;;;5007605;28;89625;-39
2023/03/22 02:25:36;;;;;;;;;;;10.60;71.70;;;;;;5003584;28;87237;-39
2023/03/22 02:28:13;;;;;;;;;;;10.60;71.70;;;;;;5017128;28;86718;-39
2023/03/22 02:30:39;;;;;;;;;;;10.60;71.60;;;;;;5016952;28;89618;-38
2023/03/22 02:33:12;;;;;;;;;;;10.60;71.80;;;;;;5017618;28;87192;-38
2023/03/22 02:35:43;;;;;;;;;;;10.60;71.80;;;;;;5005547;28;88058;-38
2023/03/22 02:38:11;;;;;;;;;;;10.60;71.80;;;;;;5006596;28;87228;-38
2023/03/22 02:40:43;;;;;;;;;;;10.60;71.80;;;;;;5020161;28;87438;-39
2023/03/22 02:43:29;;;;;;;;;;;10.60;71.80;;;;;;5013955;28;89646;-38
2023/03/22 02:46:11;;;;;;;;;;;10.60;71.90;;;;;;5003143;28;86975;-39
2023/03/22 02:48:47;;;;;;;;;;;10.60;71.80;;;;;;5002865;28;87815;-38
2023/03/22 02:51:24;;;;;;;;;;;10.60;71.80;;;;;;5002783;28;88046;-38
2023/03/22 02:54:10;;;;;;;;;;;10.60;71.80;;;;;;5012046;28;86498;-38
2023/03/22 02:56:39;;;;;;;;;;;10.60;71.80;;;;;;5010301;28;88210;-39
2023/03/22 02:59:07;;;;;;;;;;;10.60;71.80;;;;;;5011165;28;89616;-38
2023/03/22 03:01:36;;;;;;;;;;;10.50;71.80;;;;;;5011405;28;88188;-38
2023/03/22 03:04:03;;;;;;;;;;;10.50;71.80;;;;;;5002601;28;88190;-38
2023/03/22 03:06:32;;;;;;;;;;;10.50;71.80;;;;;;5002915;28;87840;-39
2023/03/22 03:09:01;;;;;;;;;;;10.50;71.90;;;;;;5002934;28;89096;-39
2023/03/22 03:11:27;;;;;;;;;;;10.50;71.90;;;;;;5002143;28;89533;-38
2023/03/22 03:13:52;;;;;;;;;;;10.50;71.80;;;;;;5016844;28;87205;-38
2023/03/22 03:16:21;;;;;;;;;;;10.50;71.80;;;;;;5015957;28;87881;-39
2023/03/22 03:19:02;;;;;;;;;;;10.50;71.80;;;;;;5019290;28;88857;-38
2023/03/22 03:21:34;;;;;;;;;;;10.50;71.80;;;;;;5005655;28;87107;-38
2023/03/22 03:24:05;;;;;;;;;;;10.50;71.80;;;;;;5016664;28;87966;-39
2023/03/22 03:26:40;;;;;;;;;;;10.50;71.90;;;;;;5006189;28;88750;-39
2023/03/22 03:29:21;;;;;;;;;;;10.50;72.00;;;;;;5011227;28;89965;-39
2023/03/22 03:31:46;;;;;;;;;;;10.50;71.90;;;;;;5019074;28;87580;-39
2023/03/22 03:34:16;;;;;;;;;;;10.40;71.90;;;;;;5016597;28;87108;-39
2023/03/22 03:36:45;;;;;;;;;;;10.40;72.00;;;;;;5002640;28;87684;-38
2023/03/22 03:39:13;;;;;;;;;;;10.40;71.90;;;;;;5017439;28;89386;-39
2023/03/22 03:41:39;;;;;;;;;;;10.50;71.90;;;;;;5013913;28;87235;-39
2023/03/22 03:44:05;;;;;;;;;;;10.40;72.00;;;;;;5002314;28;89495;-39
2023/03/22 03:46:31;;;;;;;;;;;10.40;71.90;;;;;;5016371;28;87174;-39
2023/03/22 03:48:57;;;;;;;;;;;10.40;72.00;;;;;;5002448;28;89193;-39
2023/03/22 03:51:24;;;;;;;;;;;10.40;71.90;;;;;;5000977;28;90361;-39
2023/03/22 03:53:50;;;;;;;;;;;10.40;72.00;;;;;;5014899;28;87142;-39
2023/03/22 03:56:15;;;;;;;;;;;10.40;72.00;;;;;;5016391;28;87429;-39
2023/03/22 03:58:41;;;;;;;;;;;10.40;71.90;;;;;;5001733;28;89477;-39
2023/03/22 04:01:06;;;;;;;;;;;10.40;71.90;;;;;;5001943;28;87970;-39
2023/03/22 04:03:32;;;;;;;;;;;10.40;71.90;;;;;;5004945;28;88650;-39
2023/03/22 04:05:58;;;;;;;;;;;10.40;71.80;;;;;;5002161;28;87816;-39
2023/03/22 04:08:24;;;;;;;;;;;10.40;71.90;;;;;;5008444;28;88707;-38
2023/03/22 04:10:50;;;;;;;;;;;10.40;71.90;;;;;;5001574;28;89435;-38
2023/03/22 04:13:16;;;;;;;;;;;10.40;72.00;;;;;;5001745;28;87126;-39
2023/03/22 04:15:41;;;;;;;;;;;10.30;71.80;;;;;;5001329;28;88929;-38
2023/03/22 04:18:08;;;;;;;;;;;10.30;72.00;;;;;;5001154;28;89235;-39
2023/03/22 04:20:34;;;;;;;;;;;10.30;72.00;;;;;;5001612;28;87032;-39
2023/03/22 04:22:59;;;;;;;;;;;10.30;72.00;;;;;;5001678;28;89473;-39
2023/03/22 04:25:28;;;;;;;;;;;10.30;72.10;;;;;;5004529;28;89263;-38
2023/03/22 04:27:54;;;;;;;;;;;10.30;72.00;;;;;;5001477;28;88802;-39
2023/03/22 04:30:21;;;;;;;;;;;10.30;72.10;;;;;;5001644;28;89215;-38
2023/03/22 04:32:47;;;;;;;;;;;10.30;72.00;;;;;;5003336;28;86342;-39
2023/03/22 04:35:13;;;;;;;;;;;10.30;72.10;;;;;;5005127;28;88034;-39
2023/03/22 04:37:38;;;;;;;;;;;10.30;72.10;;;;;;5019666;28;89358;-39
2023/03/22 04:40:06;;;;;;;;;;;10.30;72.00;;;;;;5017638;28;88124;-39
2023/03/22 04:42:32;;;;;;;;;;;10.30;72.00;;;;;;5022344;28;89651;-39
2023/03/22 04:44:58;;;;;;;;;;;10.30;72.00;;;;;;5020699;28;89302;-39
2023/03/22 04:47:23;;;;;;;;;;;10.20;72.00;;;;;;5007656;28;87247;-38
2023/03/22 04:49:49;;;;;;;;;;;10.20;72.00;;;;;;5004666;28;89553;-39
2023/03/22 04:52:14;;;;;;;;;;;10.20;72.10;;;;;;5004861;28;87289;-39
2023/03/22 04:54:40;;;;;;;;;;;10.20;72.20;;;;;;5005083;28;87776;-39
2023/03/22 04:57:06;;;;;;;;;;;10.20;72.00;;;;;;5005035;28;88830;-39
2023/03/22 04:59:31;;;;;;;;;;;10.20;72.10;;;;;;5004302;28;87133;-39
2023/03/22 05:01:57;;;;;;;;;;;10.20;72.00;;;;;;5007429;28;87734;-39
2023/03/22 05:04:23;;;;;;;;;;;10.20;72.10;;;;;;5021363;28;89100;-38
2023/03/22 05:06:48;;;;;;;;;;;10.20;72.10;;;;;;5006664;28;87171;-39
2023/03/22 05:09:14;;;;;;;;;;;10.20;72.20;;;;;;5007156;28;88826;-39
2023/03/22 05:11:39;;;;;;;;;;;10.20;72.10;;;;;;5004788;28;88091;-39
2023/03/22 05:14:05;;;;;;;;;;;10.20;72.20;;;;;;5004928;28;87769;-39
2023/03/22 05:16:31;;;;;;;;;;;10.20;72.20;;;;;;5004351;28;89499;-39
2023/03/22 05:18:57;;;;;;;;;;;10.20;72.20;;;;;;5004351;28;87164;-38
2023/03/22 05:21:26;;;;;;;;;;;10.20;72.10;;;;;;5004808;28;89009;-39
2023/03/22 05:23:56;;;;;;;;;;;10.20;72.00;;;;;;5006516;28;89753;-39
2023/03/22 05:26:23;;;;;;;;;;;10.20;72.10;;;;;;5019144;28;87766;-39
2023/03/22 05:28:49;;;;;;;;;;;10.20;72.10;;;;;;5018832;28;89344;-39
2023/03/22 05:31:15;;;;;;;;;;;10.20;72.20;;;;;;5020793;28;89608;-39
2023/03/22 05:33:41;;;;;;;;;;;10.20;72.10;;;;;;5016794;28;88899;-38
2023/03/22 05:36:07;;;;;;;;;;;10.20;72.00;;;;;;5016300;28;88785;-39
2023/03/22 05:38:33;;;;;;;;;;;10.10;72.00;;;;;;5019112;28;88060;-39
2023/03/22 05:40:58;;;;;;;;;;;10.10;72.10;;;;;;5016976;28;88409;-38
2023/03/22 05:43:24;;;;;;;;;;;10.10;72.10;;;;;;5020311;28;87948;-39
2023/03/22 05:45:49;;;;;;;;;;;10.10;72.10;;;;;;5017497;28;87118;-39
2023/03/22 05:48:15;;;;;;;;;;;10.10;72.20;;;;;;5014937;28;88053;-39
2023/03/22 05:50:41;;;;;;;;;;;10.10;72.20;;;;;;5019120;28;89285;-39
2023/03/22 05:53:06;;;;;;;;;;;10.10;72.20;;;;;;5003213;28;88711;-39
2023/03/22 05:55:32;;;;;;;;;;;10.10;72.10;;;;;;5003730;28;89673;-38
2023/03/22 05:57:58;;;;;;;;;;;10.10;72.20;;;;;;5003943;28;88076;-39
2023/03/22 06:00:24;;;;;;;;;;;10.10;72.20;;;;;;5003517;28;88818;-38
2023/03/22 06:02:53;;;;;;;;;;;10.10;72.20;;;;;;5003464;28;88805;-39
2023/03/22 06:05:19;;;;;;;;;;;10.10;72.20;;;;;;5003913;28;87851;-39
2023/03/22 06:07:45;;;;;;;;;;;10.10;72.20;;;;;;5003683;28;88612;-39
2023/03/22 06:10:11;;;;;;;;;;;10.10;72.20;;;;;;5003888;28;88983;-39
2023/03/22 06:12:37;;;;;;;;;;;10.10;72.10;;;;;;5021674;28;87809;-39
2023/03/22 06:15:03;;;;;;;;;;;10.10;72.10;;;;;;5017914;28;89771;-39
2023/03/22 06:17:29;;;;;;;;;;;10.10;72.10;;;;;;5018330;28;88315;-39
2023/03/22 06:19:54;;;;;;;;;;;10.10;72.20;;;;;;5020116;28;89875;-38
2023/03/22 06:22:20;;;;;;;;;;;10.10;72.20;;;;;;5018443;28;89379;-39
2023/03/22 06:24:46;;;;;;;;;;;10.10;72.20;;;;;;5007605;28;87132;-39
2023/03/22 06:27:12;;;;;;;;;;;10.10;72.10;;;;;;5018707;28;88774;-38
2023/03/22 06:29:38;;;;;;;;;;;10.10;72.20;;;;;;5019629;28;89298;-38
2023/03/22 06:32:04;;;;;;;;;;;10.10;72.20;;;;;;5021000;28;87088;-38
2023/03/22 06:34:29;;;;;;;;;;;10.10;72.10;;;;;;5023044;28;89177;-38
2023/03/22 06:36:55;;;;;;;;;;;10.10;72.20;;;;;;5012764;28;87787;-38
2023/03/22 06:39:21;;;;;;;;;;;10.00;72.10;;;;;;5002969;28;87829;-39
2023/03/22 06:41:46;;;;;;;;;;;10.10;72.20;;;;;;5002002;28;90433;-39
2023/03/22 06:44:12;;;;;;;;;;;10.10;72.20;;;;;;5003054;28;87172;-38
2023/03/22 06:46:37;;;;;;;;;;;10.00;72.10;;;;;;5003310;28;88569;-38
2023/03/22 06:49:03;;;;;;;;;;;10.00;72.20;;;;;;5002716;28;89400;-39
2023/03/22 06:51:29;;;;;;;;;;;10.00;72.20;;;;;;5003013;28;87183;-39
2023/03/22 06:53:54;;;;;;;;;;;10.00;72.10;;;;;;5011990;28;91288;-39
2023/03/22 06:56:20;;;;;;;;;;;10.10;72.30;;;;;;5005608;28;87115;-39
2023/03/22 06:58:45;;;;;;;;;;;10.10;72.20;;;;;;5003314;28;87433;-38
2023/03/22 07:01:11;;;;;;;;;;;10.00;72.20;;;;;;5003876;28;89420;-39
2023/03/22 07:03:36;;;;;;;;;;;10.10;72.20;;;;;;5005529;28;87126;-38
2023/03/22 07:06:03;;;;;;;;;;;10.10;72.30;;;;;;5015332;28;88060;-38
2023/03/22 07:08:29;;;;;;;;;;;10.10;72.20;;;;;;5018207;28;90439;-39
2023/03/22 07:10:54;;;;;;;;;;;10.10;72.20;;;;;;5018180;28;87189;-38
2023/03/22 07:13:20;;;;;;;;;;;10.10;72.20;;;;;;5018008;28;88879;-39
2023/03/22 07:15:45;;;;;;;;;;;10.00;72.10;;;;;;5017524;28;90189;-39
2023/03/22 07:18:11;;;;;;;;;;;10.10;72.20;;;;;;5019528;28;87748;-39
2023/03/22 07:20:39;;;;;;;;;;;10.10;72.20;;;;;;5017653;28;89657;-38
2023/03/22 07:23:04;;;;;;;;;;;10.10;72.10;;;;;;5022868;28;86453;-39
2023/03/22 07:25:30;;;;;;;;;;;10.10;72.20;;;;;;5018119;28;87989;-39
2023/03/22 07:27:55;;;;;;;;;;;10.10;72.30;;;;;;5003755;28;89431;-39
2023/03/22 07:30:21;;;;;;;;;;;10.10;72.20;;;;;;5001963;28;88817;-38
2023/03/22 07:32:46;;;;;;;;;;;10.10;72.30;;;;;;5002662;28;89964;-39
2023/03/22 07:35:12;;;;;;;;;;;10.10;72.30;;;;;;5003906;28;89590;-38
2023/03/22 07:37:37;;;;;;;;;;;10.10;72.30;;;;;;5002082;28;87181;-39
2023/03/22 07:40:03;;;;;;;;;;;10.10;72.30;;;;;;5005377;28;88811;-39
2023/03/22 07:42:30;;;;;;;;;;;10.00;72.20;;;;;;5002266;28;87795;-39
2023/03/22 07:44:55;;;;;;;;;;;10.10;72.40;;;;;;5002612;28;88984;-39
2023/03/22 07:47:21;;;;;;;;;;;10.10;72.30;;;;;;5002504;28;88621;-39
2023/03/22 07:49:46;;;;;;;;;;;10.10;72.40;;;;;;5002677;28;87984;-39
2023/03/22 07:52:12;;;;;;;;;;;10.10;72.40;;;;;;5016865;28;87840;-38
2023/03/22 07:54:38;;;;;;;;;;;10.10;72.30;;;;;;5019058;28;88957;-39
2023/03/22 07:57:04;;;;;;;;;;;10.10;72.40;;;;;;5017970;28;87318;-39
2023/03/22 07:59:30;;;;;;;;;;;10.10;72.40;;;;;;5007762;28;88884;-39
2023/03/22 08:01:55;;;;;;;;;;;10.10;72.40;;;;;;5002191;28;87208;-39
2023/03/22 08:04:21;;;;;;;;;;;10.10;72.40;;;;;;5002038;28;88879;-38
2023/03/22 08:06:47;;;;;;;;;;;10.10;72.40;;;;;;5015633;28;89307;-38
2023/03/22 08:09:13;;;;;;;;;;;10.10;72.40;;;;;;5021939;28;87214;-38
2023/03/22 08:11:39;;;;;;;;;;;10.00;72.40;;;;;;5022303;28;89055;-39
2023/03/22 08:14:04;;;;;;;;;;;10.00;72.50;;;;;;5020634;28;89355;-38
2023/03/22 08:16:30;;;;;;;;;;;10.00;72.50;;;;;;5021167;28;87791;-38
2023/03/22 08:18:55;;;;;;;;;;;10.00;72.50;;;;;;5020764;28;88590;-39
2023/03/22 08:21:21;;;;;;;;;;;10.00;72.60;;;;;;5024701;28;88988;-39
2023/03/22 08:23:46;;;;;;;;;;;10.00;72.60;;;;;;5018322;28;87764;-38
2023/03/22 08:26:12;;;;;;;;;;;10.00;72.60;;;;;;5011529;28;88109;-39
2023/03/22 08:28:37;;;;;;;;;;;10.00;72.60;;;;;;5018360;28;87956;-39
2023/03/22 08:31:10;;;;;;;;;;;10.00;72.50;;;;;;5019536;28;87798;-38
2023/03/22 08:33:37;;;;;;;;;;;10.00;72.60;;;;;;5021647;28;89319;-39
2023/03/22 08:36:07;;;;;;;;;;;10.00;72.50;;;;;;5021153;28;86387;-39
2023/03/22 08:38:33;;;;;;;;;;;10.00;72.70;;;;;;5020466;28;88544;-39
2023/03/22 08:40:58;;;;;;;;;;;10.00;72.60;;;;;;5019906;28;90423;-38
2023/03/22 08:43:24;;;;;;;;;;;10.00;72.70;;;;;;5012812;28;88071;-38
2023/03/22 08:45:49;;;;;;;;;;;10.00;72.70;;;;;;5004638;28;90355;-39
2023/03/22 08:48:15;;;;;;;;;;;10.00;72.70;;;;;;5005058;28;87145;-38
2023/03/22 08:50:40;;;;;;;;;;;10.00;72.70;;;;;;5006929;28;88888;-39
2023/03/22 08:53:06;;;;;;;;;;;9.90;72.70;;;;;;5004893;28;88176;-39
2023/03/22 08:55:34;;;;;;;;;;;9.90;72.70;;;;;;5005345;28;87339;-38
2023/03/22 08:58:00;;;;;;;;;;;9.90;72.70;;;;;;5016383;28;89043;-39
2023/03/22 09:00:26;;;;;;;;;;;9.90;72.70;;;;;;5004883;28;89104;-38
2023/03/22 09:02:51;;;;;;;;;;;9.90;72.70;;;;;;5019083;28;87292;-39
2023/03/22 09:05:17;;;;;;;;;;;9.90;72.70;;;;;;5021954;28;90233;-38
2023/03/22 09:07:43;;;;;;;;;;;9.90;72.70;;;;;;5017606;28;88900;-38
2023/03/22 09:10:09;;;;;;;;;;;9.90;72.80;;;;;;5018690;28;90146;-39
2023/03/22 09:12:34;;;;;;;;;;;9.90;72.80;;;;;;5014629;28;89381;-39
2023/03/22 09:15:00;;;;;;;;;;;10.00;72.80;;;;;;5004809;28;87128;-38
2023/03/22 09:17:26;;;;;;;;;;;9.90;72.70;;;;;;5004660;28;87935;-39
2023/03/22 09:19:51;;;;;;;;;;;9.90;72.70;;;;;;5003710;28;89302;-38
2023/03/22 09:22:17;;;;;;;;;;;9.90;72.80;;;;;;5004613;28;87234;-38
2023/03/22 09:24:42;;;;;;;;;;;9.90;72.80;;;;;;5005180;28;89082;-38
2023/03/22 09:27:08;;;;;;;;;;;9.90;72.80;;;;;;5021057;28;87339;-39
2023/03/22 09:29:34;;;;;;;;;;;9.90;72.90;;;;;;5017083;28;89345;-38
2023/03/22 09:31:59;;;;;;;;;;;9.90;72.90;;;;;;5014181;28;90274;-38
2023/03/22 09:34:25;;;;;;;;;;;9.90;72.90;;;;;;5004094;28;87183;-38
2023/03/22 09:36:51;;;;;;;;;;;9.90;72.80;;;;;;5020960;28;89326;-39
2023/03/22 09:39:17;;;;;;;;;;;9.90;72.90;;;;;;5019087;28;89468;-38
2023/03/22 09:41:45;;;;;;;;;;;9.90;72.90;;;;;;5018832;28;87093;-39
2023/03/22 09:44:16;;;;;;;;;;;9.90;72.90;;;;;;5017421;28;87379;-39
2023/03/22 09:46:47;;;;;;;;;;;9.90;72.90;;;;;;5019666;28;87943;-39
2023/03/22 09:49:15;;;;;;;;;;;9.90;72.90;;;;;;5014021;28;86448;-38
2023/03/22 09:51:48;;;;;;;;;;;9.90;73.40;;;;;;5003721;28;89354;-38
2023/03/22 09:54:20;;;;;;;;;;;9.90;72.90;;;;;;5003930;28;87146;-39
2023/03/22 09:56:52;;;;;;;;;;;9.90;72.90;;;;;;5003308;28;89034;-39
2023/03/22 09:59:29;;;;;;;;;;;9.90;72.90;;;;;;5018601;28;88900;-39
2023/03/22 10:01:57;;;;;;;;;;;9.80;72.90;;;;;;5020011;28;87072;-39
2023/03/22 10:04:32;;;;;;;;;;;9.90;72.90;;;;;;5020315;28;89598;-39
2023/03/22 10:07:09;;;;;;;;;;;9.90;72.90;;;;;;5019743;28;89464;-38
2023/03/22 10:09:43;;;;;;;;;;;9.90;72.90;;;;;;5021009;28;87027;-39
2023/03/22 10:12:21;;;;;;;;;;;9.90;72.90;;;;;;5017156;28;89459;-39
2023/03/22 10:14:56;;;;;;;;;;;9.90;72.90;;;;;;5019506;28;86488;-38
2023/03/22 10:17:24;;;;;;;;;;;9.90;73.60;;;;;;5003693;28;88188;-38
2023/03/22 10:19:58;;;;;;;;;;;9.90;72.90;;;;;;5003155;28;89148;-38
2023/03/22 10:22:29;;;;;;;;;;;9.90;73.00;;;;;;5017151;28;88073;-39
2023/03/22 10:24:55;;;;;;;;;;;9.90;73.00;;;;;;5007548;28;88416;-38
2023/03/22 10:27:22;;;;;;;;;;;9.90;73.00;;;;;;5016382;28;89259;-39
2023/03/22 10:29:57;;;;;;;;;;;9.90;73.00;;;;;;5003293;28;87054;-39
2023/03/22 10:32:26;;;;;;;;;;;9.90;73.00;;;;;;5020565;28;88490;-38
2023/03/22 10:34:52;;;;;;;;;;;9.90;73.00;;;;;;5012835;28;87095;-38
2023/03/22 10:37:28;;;;;;;;;;;9.90;73.00;;;;;;5003154;28;88802;-38
2023/03/22 10:39:54;;;;;;;;;;;9.80;73.10;;;;;;5003530;28;88342;-38
2023/03/22 10:42:24;;;;;;;;;;;9.80;73.10;;;;;;5003624;28;87354;-38
2023/03/22 10:45:07;;;;;;;;;;;9.80;73.70;;;;;;5016620;28;88619;-38
2023/03/22 10:47:35;;;;;;;;;;;9.90;73.10;;;;;;5017259;28;90580;-38
2023/03/22 10:50:03;;;;;;;;;;;9.90;73.00;;;;;;5018473;28;87189;-39
2023/03/22 10:52:28;;;;;;;;;;;9.90;73.10;;;;;;5019277;28;89161;-39
2023/03/22 10:54:56;;;;;;;;;;;9.80;73.10;;;;;;5022357;28;88058;-39
2023/03/22 10:57:22;;;;;;;;;;;9.80;73.10;;;;;;5005944;28;89440;-38
2023/03/22 10:59:51;;;;;;;;;;;9.80;73.00;;;;;;5005244;28;90204;-38
2023/03/22 11:02:18;;;;;;;;;;;9.80;73.80;;;;;;5005562;28;87098;-38
2023/03/22 11:05:09;;;;;;;;;;;9.80;73.10;;;;;;5003159;28;88003;-38
2023/03/22 11:07:35;;;;;;;;;;;9.80;73.20;;;;;;5015282;28;89767;-39
2023/03/22 11:10:06;;;;;;;;;;;9.90;73.20;;;;;;5017186;28;87202;-39
2023/03/22 11:12:32;;;;;;;;;;;9.90;73.20;;;;;;5017621;28;89061;-38
2023/03/22 11:14:58;;;;;;;;;;;9.80;73.10;;;;;;5002426;28;89756;-39
2023/03/22 11:17:24;;;;;;;;;;;9.90;73.10;;;;;;5005710;28;87257;-39
2023/03/22 11:20:08;;;;;;;;;;;9.90;73.10;;;;;;5002165;28;89695;-39
2023/03/22 11:22:36;;;;;;;;;;;9.90;73.10;;;;;;5006176;28;87353;-39
2023/03/22 11:25:02;;;;;;;;;;;9.90;73.10;;;;;;5017097;28;88046;-38
2023/03/22 11:27:30;;;;;;;;;;;9.90;73.10;;;;;;5017321;28;89509;-38
2023/03/22 11:30:14;;;;;;;;;;;9.90;73.20;;;;;;5004126;28;86493;-39
2023/03/22 11:32:40;;;;;;;;;;;9.90;73.10;;;;;;5014988;28;87185;-39
2023/03/22 11:35:14;;;;;;;;;;;9.80;73.10;;;;;;5006387;28;89332;-39
2023/03/22 11:37:47;;;;;;;;;;;9.80;73.10;;;;;;5001727;28;88518;-39
2023/03/22 11:40:15;;;;;;;;;;;9.90;73.20;;;;;;5005105;28;87316;-38
2023/03/22 11:42:41;;;;;;;;;;;9.80;73.20;;;;;;5004613;28;87177;-38
2023/03/22 11:45:07;;;;;;;;;;;9.80;73.20;;;;;;5006196;28;88551;-39
2023/03/22 11:47:35;;;;;;;;;;;9.90;73.80;;;;;;5005500;28;89446;-38
2023/03/22 11:50:03;;;;;;;;;;;9.90;73.20;;;;;;5005913;28;87115;-39
2023/03/22 11:52:29;;;;;;;;;;;9.90;73.30;;;;;;5005981;28;89169;-39
2023/03/22 11:54:55;;;;;;;;;;;9.90;73.30;;;;;;5006183;28;87357;-38
2023/03/22 11:57:23;;;;;;;;;;;9.90;73.20;;;;;;5005907;28;87083;-39
2023/03/22 12:00:10;;;;;;;;;;;9.90;73.20;;;;;;5008218;28;89022;-38
2023/03/22 12:02:41;;;;;;;;;;;9.90;73.30;;;;;;5009209;28;88182;-38
2023/03/22 12:05:13;;;;;;;;;;;9.90;73.30;;;;;;5011847;28;89832;-38
2023/03/22 12:07:40;;;;;;;;;;;9.90;73.30;;;;;;5019553;28;89809;-39
2023/03/22 12:10:06;;;;;;;;;;;9.90;73.30;;;;;;5020885;28;87331;-38
2023/03/22 12:12:35;;;;;;;;;;;9.90;73.30;;;;;;5021206;28;88706;-38
2023/03/22 12:15:12;;;;;;;;;;;9.80;73.20;;;;;;5016143;28;88271;-39
2023/03/22 12:17:42;;;;;;;;;;;9.90;73.30;;;;;;5011296;28;87191;-39
2023/03/22 12:20:11;;;;;;;;;;;9.90;73.30;;;;;;5005904;28;88683;-38
2023/03/22 12:22:39;;;;;;;;;;;9.90;73.30;;;;;;5007933;28;89689;-38
2023/03/22 12:25:10;;;;;;;;;;;9.90;73.30;;;;;;5005687;28;88271;-38
2023/03/22 12:27:39;;;;;;;;;;;9.90;73.30;;;;;;5016709;28;89197;-39
2023/03/22 12:30:10;;;;;;;;;;;9.90;73.40;;;;;;5022440;28;87513;-38
2023/03/22 12:32:55;;;;;;;;;;;9.90;73.40;;;;;;5019256;28;89397;-38
2023/03/22 12:35:23;;;;;;;;;;;9.90;73.40;;;;;;5004721;28;88199;-38
2023/03/22 12:37:51;;;;;;;;;;;9.90;73.40;;;;;;5005141;28;87191;-39
2023/03/22 12:40:21;;;;;;;;;;;9.90;73.50;;;;;;5005208;28;88867;-38
2023/03/22 12:42:50;;;;;;;;;;;9.90;73.50;;;;;;5006727;28;89113;-38
2023/03/22 12:45:18;;;;;;;;;;;9.90;73.50;;;;;;5008486;28;86451;-38
2023/03/22 12:47:50;;;;;;;;;;;9.90;73.50;;;;;;5004761;28;89275;-38
2023/03/22 12:50:22;;;;;;;;;;;9.80;73.50;;;;;;5005272;28;87078;-39
2023/03/22 12:52:48;;;;;;;;;;;9.90;73.50;;;;;;5018270;28;87977;-39
2023/03/22 12:55:37;;;;;;;;;;;9.90;73.60;;;;;;5017297;28;88368;-39
2023/03/22 12:58:07;;;;;;;;;;;9.90;73.60;;;;;;4999300;28;87222;-39
2023/03/22 13:00:39;;;;;;;;;;;9.90;73.60;;;;;;5004761;28;88714;-38
2023/03/22 13:03:07;;;;;;;;;;;9.90;73.60;;;;;;5004383;28;90187;-39
2023/03/22 13:05:33;;;;;;;;;;;9.90;73.70;;;;;;5019209;28;87129;-38
2023/03/22 13:08:02;;;;;;;;;;;9.90;73.70;;;;;;5016457;28;88709;-39
2023/03/22 13:10:28;;;;;;;;;;;9.90;73.70;;;;;;5012116;28;86406;-39
2023/03/22 13:13:12;;;;;;;;;;;9.90;73.70;;;;;;5004815;28;87976;-39
2023/03/22 13:15:40;;;;;;;;;;;9.90;73.70;;;;;;5007063;28;89684;-38
2023/03/22 13:18:21;;;;;;;;;;;9.90;73.70;;;;;;5003722;28;88056;-38
2023/03/22 13:21:06;;;;;;;;;;;9.90;73.70;;;;;;5004649;28;89784;-39
2023/03/22 13:23:32;;;;;;;;;;;9.90;73.70;;;;;;5006028;28;89741;-38
2023/03/22 13:25:59;;;;;;;;;;;9.90;73.80;;;;;;5004750;28;87937;-38
2023/03/22 13:28:25;;;;;;;;;;;9.90;73.80;;;;;;5014212;28;89241;-44
2023/03/22 13:30:52;;;;;;;;;;;9.90;73.80;;;;;;5007004;28;88691;-38
2023/03/22 13:33:19;;;;;;;;;;;9.90;73.80;;;;;;5004165;28;88710;-39
2023/03/22 13:35:57;;;;;;;;;;;9.90;73.70;;;;;;5020471;28;89209;-39
2023/03/22 13:38:23;;;;;;;;;;;9.90;73.70;;;;;;5017920;28;87221;-39
2023/03/22 13:41:17;;;;;;;;;;;9.90;73.70;;;;;;5021500;28;88848;-38
2023/03/22 13:43:48;;;;;;;;;;;9.90;73.50;;;;;;5007933;28;90172;-39
2023/03/22 13:46:20;;;;;;;;;;;10.00;73.40;;;;;;5004571;28;87864;-39
2023/03/22 13:48:46;;;;;;;;;;;10.00;73.30;;;;;;5019832;28;88979;-39
2023/03/22 13:51:30;;;;;;;;;;;10.00;73.30;;;;;;5014202;28;88459;-39
2023/03/22 13:54:17;;;;;;;;;;;10.00;73.40;;;;;;5021749;28;87220;-39
2023/03/22 13:56:46;;;;;;;;;;;10.00;73.30;;;;;;5019549;28;87864;-39
2023/03/22 13:59:11;;;;;;;;;;;10.00;73.40;;;;;;5004024;28;87265;-39
2023/03/22 14:01:49;;;;;;;;;;;10.00;73.50;;;;;;5016839;28;89861;-39
2023/03/22 14:04:21;;;;;;;;;;;10.00;73.50;;;;;;5014744;28;89690;-39
2023/03/22 14:06:52;;;;;;;;;;;10.00;73.40;;;;;;5002641;28;87686;-39
2023/03/22 14:09:32;;;;;;;;;;;10.00;73.50;;;;;;5003231;28;88064;-39
2023/03/22 14:12:18;;;;;;;;;;;10.00;73.60;;;;;;5003459;28;88201;-39
2023/03/22 14:14:46;;;;;;;;;;;10.00;73.60;;;;;;5006447;28;87267;-36
2023/03/22 14:17:28;;;;;;;;;;;10.10;73.40;;;;;;5002972;28;89356;-39
2023/03/22 14:19:55;;;;;;;;;;;10.10;73.50;;;;;;5018451;28;87165;-39
2023/03/22 14:22:27;;;;;;;;;;;10.10;73.50;;;;;;5019591;28;87580;-38
2023/03/22 14:24:53;;;;;;;;;;;10.10;73.40;;;;;;5019706;28;89540;-39
2023/03/22 14:27:19;;;;;;;;;;;10.10;73.30;;;;;;5018530;28;87164;-38